Airfield :
LOGIN :

Register | Disclaimer

   EN    FR    IT 

 










Legend :    VFR   Marginal VFR   IFR   Intensive IFR   Very Intensive IFR
Visi :
Ceiling :
>= 8 km
>= 3000ft
5 to 8 km
1000 to 3000 ft
1500m to 5 km
500 to 1000 ft
800 to 1500m
200 to 500 ft
< 800m
< 200 ft
Symbols :   Thunderstorms  Fog  Heavy snow  Heavy precipitations  Wind > 20 kt
SIGMETs :     Misc.  Thunderstorms  Icing  Turbulence  Mountain Waves  Volcanic Ashes






- Airport Elevation : 90 ft
- IATA code : NTE


LFRS - Nantes

CURRENT METAR :
  • 041730Z AUTO 23010KT 200V260 3000 +RADZ BR OVC004 18/18 Q1021 TEMPO NSW

EXPIRED METARs :
  • 041700Z AUTO 23010KT 190V250 2900 +RADZ BR OVC004 18/18 Q1021 TEMPO NSW
  • 041630Z AUTO 23011KT 4100 +RADZ BR OVC005 18/17 Q1021 TEMPO 2000 -RADZ
  • 041600Z AUTO 23011KT 4900 +RADZ BR OVC007 18/17 Q1021 TEMPO 2000 -RADZ OVC003
  • 041530Z AUTO 22010KT 9999 OVC006 18/18 Q1021 TEMPO 2000 -RADZ OVC003
  • 041500Z AUTO 22011KT 190V250 9999 +RADZ BKN006 OVC011 18/18 Q1022 TEMPO 2000 -RADZ OVC003

TAF TAF LFRS
Valid from the 04 at 18:00 until the 06 at 00:00 UTC


041700Z 0418/0524 23008KT 9999 BKN010
TEMPO 0418/0509 2000 -RADZ OVC003
TEMPO 0509/0518 29010KT BKN020
ATIS : +33 2 40 05 12 74



MET'MAP, your aeronautical weather chart ! - Copyright ORBIFLY December 2007 - Disclaimer

ORBIFLY MET'MAP TEAM :

Programming & Development : Alexandra Zaïnal
Concept & original design : Baudouin d'Aumeries
Assistance for programming : Marc-Olivier Méhu
Technical & hardware support : Manuel Goepfert

Contact : metmap@orbifly.com




SOURCES & CREDITS :

   NOAA